Richfield Heights, Ohio
Current Conditions -  °F | °C
As of 11:51 AM on Friday 28 Nov 2014 (Local Time) from KCLE Reporting Station
Broken Clouds Broken Clouds  
Wind Chill: 13°   Ceiling: 25000
Heat Index: 24°   Visibility: 10mi
Dew Point: 13°   Wind: 12mph
Humidity: 62%   Direction: 240°WSW
Pressure: 30.34"   Gusts: NA
Location:  41.2393°N, 81.6428°W
Report Text: KCLE 281651Z 24010KT 10SM SCT030 SCT100 BKN250 M04/M11 A3034 RMK AO2 SLP286 T10441106 $
Loading
Personal Weather Stations






























Interactive Weather Map New forecast layout! Learn more

10-Day Weather Forecast

Advertisements
Track Severe Weather on mobile